VOML/IXE METAR and TAF weather

Enter ICAO airport designator
Station Type Date Time Source
VOML METAR 2022/01/29 13:00 UTC NOAA

VOML 291300Z 29005KT 6000 NSC 29/19 Q1010 NOSIG


Station Type Date Time Source
VOML Decoded METAR 2022/01/29 13:00 UTC NOAA

Mangalore / Bajpe, India (VOML) 12-55N 074-53E 102M
Jan 29, 2022 - 08:00 AM EST / 2022.01.29 1300 UTC
Wind: from the WNW (290 degrees) at 6 MPH (5 KT):0
Visibility: 3 mile(s):0
Temperature: 84 F (29 C)
Dew Point: 66 F (19 C)
Relative Humidity: 54%
Pressure (altimeter): 29.83 in. Hg (1010 hPa)
ob: VOML 291300Z 29005KT 6000 NSC 29/19 Q1010 NOSIG
cycle: 13

Station Type Date Time Source
VOML TAF 2022/01/29 12:00 UTC NOAA

TAF VOML 291100Z 2912/3018 27005KT 6000 NSC
BECMG 2916/2917 VRB02KT
TEMPO 3000/3003 3000 BR FEW012
BECMG 3004/3005 09005KT 6000 NSC

Example: see airport list